Time;durP1;ratioP1;P1;durP2;ratioP2;P2;SDS_P1;SDS_P2;PMS_P1;PMS_P2;Temp;Humidity;BMP_temperature;BMP_pressure;BME280_temperature;BME280_humidity;BME280_pressure;Samples;Min_cycle;Max_cycle;Signal;HPM_P1;HPM_P2
2023/01/13 00:00:18;;;;;;;24.30;3.60;;;;;;;;;;5025311;28;20385;-80
2023/01/13 00:02:44;;;;;;;29.63;3.38;;;;;;;;;;5023595;28;20030;-80
2023/01/13 00:05:11;;;;;;;28.20;5.30;;;;;;;;;;5025600;28;20030;-80
2023/01/13 00:07:38;;;;;;;25.63;3.70;;;;;;;;;;5042643;28;20098;-80
2023/01/13 00:10:05;;;;;;;28.45;4.03;;;;;;;;;;5042615;28;20147;-80
2023/01/13 00:12:31;;;;;;;27.25;3.72;;;;;;;;;;5027411;28;20034;-80
2023/01/13 00:14:57;;;;;;;35.38;4.25;;;;;;;;;;5023954;28;20045;-80
2023/01/13 00:17:23;;;;;;;21.73;3.42;;;;;;;;;;5041442;28;20361;-80
2023/01/13 00:19:50;;;;;;;26.85;3.85;;;;;;;;;;5041005;28;20040;-80
2023/01/13 00:22:16;;;;;;;29.40;4.13;;;;;;;;;;5041109;28;20091;-80
2023/01/13 00:24:42;;;;;;;24.25;3.88;;;;;;;;;;5040889;28;20031;-80
2023/01/13 00:27:08;;;;;;;28.42;3.55;;;;;;;;;;5041531;28;20053;-80
2023/01/13 00:29:34;;;;;;;22.92;3.55;;;;;;;;;;5041161;28;20025;-79
2023/01/13 00:32:00;;;;;;;19.88;3.22;;;;;;;;;;5040735;28;20036;-79
2023/01/13 00:34:26;;;;;;;24.10;3.95;;;;;;;;;;5039737;28;20026;-79
2023/01/13 00:36:52;;;;;;;22.95;4.18;;;;;;;;;;5039661;28;20491;-79
2023/01/13 00:39:17;;;;;;;23.13;3.67;;;;;;;;;;5039682;28;20075;-79
2023/01/13 00:44:28;;;;;;;31.95;4.15;;;;;;;;;;5032571;28;20032;-79
2023/01/13 00:46:54;;;;;;;26.45;4.82;;;;;;;;;;5039439;28;20053;-79
2023/01/13 00:49:20;;;;;;;30.42;5.05;;;;;;;;;;5039111;28;20056;-79
2023/01/13 00:51:46;;;;;;;29.48;3.95;;;;;;;;;;5030854;28;20085;-79
2023/01/13 00:54:12;;;;;;;32.65;3.72;;;;;;;;;;5038870;28;20563;-79
2023/01/13 00:56:38;;;;;;;24.45;3.75;;;;;;;;;;5039240;28;20041;-79
2023/01/13 00:59:04;;;;;;;31.52;4.78;;;;;;;;;;5038783;28;20033;-79
2023/01/13 01:01:30;;;;;;;25.02;4.15;;;;;;;;;;5037867;28;20104;-79
2023/01/13 01:03:56;;;;;;;25.90;3.38;;;;;;;;;;5038313;28;20028;-79
2023/01/13 01:06:24;;;;;;;26.98;3.95;;;;;;;;;;5038400;28;20041;-79
2023/01/13 01:08:50;;;;;;;35.20;3.85;;;;;;;;;;5024410;28;20053;-79
2023/01/13 01:11:18;;;;;;;30.90;4.30;;;;;;;;;;5036095;28;20424;-79
2023/01/13 01:13:44;;;;;;;31.17;4.63;;;;;;;;;;5038244;28;20452;-79
2023/01/13 01:16:12;;;;;;;25.17;4.25;;;;;;;;;;5038438;28;20021;-79
2023/01/13 01:18:39;;;;;;;20.13;3.28;;;;;;;;;;5035281;28;20061;-79
2023/01/13 01:21:06;;;;;;;32.92;4.03;;;;;;;;;;5032068;28;20033;-79
2023/01/13 01:23:32;;;;;;;22.33;3.45;;;;;;;;;;5037345;28;20107;-79
2023/01/13 01:26:02;;;;;;;29.48;4.43;;;;;;;;;;5019149;28;20087;-80
2023/01/13 01:28:28;;;;;;;25.53;3.80;;;;;;;;;;5037906;28;20021;-80
2023/01/13 01:30:54;;;;;;;31.10;4.50;;;;;;;;;;5037222;28;20034;-80
2023/01/13 01:33:20;;;;;;;18.85;3.35;;;;;;;;;;5037959;28;20100;-80
2023/01/13 01:35:46;;;;;;;26.45;4.22;;;;;;;;;;5037582;28;20029;-80
2023/01/13 01:38:12;;;;;;;30.58;3.80;;;;;;;;;;5038463;28;20032;-80
2023/01/13 01:40:38;;;;;;;28.33;4.20;;;;;;;;;;5036895;28;20022;-80
2023/01/13 01:45:57;;;;;;;31.42;4.55;;;;;;;;;;5034677;28;20169;-79
2023/01/13 01:48:23;;;;;;;23.38;3.22;;;;;;;;;;5041583;28;20060;-79
2023/01/13 01:50:49;;;;;;;19.23;3.42;;;;;;;;;;5041519;28;20387;-79
2023/01/13 01:53:18;;;;;;;28.85;4.70;;;;;;;;;;5032304;28;20103;-79
2023/01/13 01:55:45;;;;;;;25.48;3.95;;;;;;;;;;5040873;28;20534;-79
2023/01/13 01:58:29;;;;;;;30.80;3.85;;;;;;;;;;5024593;28;20442;-79
2023/01/13 02:00:55;;;;;;;32.72;4.65;;;;;;;;;;5043995;28;20397;-79
2023/01/13 02:03:22;;;;;;;29.60;4.35;;;;;;;;;;5043846;28;20469;-79
2023/01/13 02:05:48;;;;;;;35.83;5.30;;;;;;;;;;5042429;28;20049;-79
2023/01/13 02:08:14;;;;;;;28.60;4.03;;;;;;;;;;5043332;28;20034;-79
2023/01/13 02:10:42;;;;;;;30.95;4.82;;;;;;;;;;5030106;28;20053;-79
2023/01/13 02:13:09;;;;;;;23.10;3.83;;;;;;;;;;5030309;28;20021;-79
2023/01/13 02:15:43;;;;;;;33.67;4.60;;;;;;;;;;5042313;28;20021;-79
2023/01/13 02:18:25;;;;;;;31.88;4.10;;;;;;;;;;5041614;28;20025;-79
2023/01/13 02:21:09;;;;;;;28.33;4.00;;;;;;;;;;5034296;28;20061;-79
2023/01/13 02:26:39;;;;;;;28.33;4.85;;;;;;;;;;5040299;28;20040;-79
2023/01/13 02:32:16;;;;;;;27.02;4.03;;;;;;;;;;5040446;28;20396;-79
2023/01/13 02:34:47;;;;;;;27.70;3.58;;;;;;;;;;5040465;28;20595;-79
2023/01/13 02:37:16;;;;;;;31.45;4.47;;;;;;;;;;5035129;28;20384;-79
2023/01/13 02:39:48;;;;;;;29.75;3.38;;;;;;;;;;5028661;28;20119;-79
2023/01/13 02:45:35;;;;;;;36.70;5.03;;;;;;;;;;5039707;28;20048;-79
2023/01/13 02:48:04;;;;;;;32.92;4.05;;;;;;;;;;5021174;28;20480;-79
2023/01/13 02:50:42;;;;;;;34.00;5.28;;;;;;;;;;5040115;28;20029;-79
2023/01/13 02:53:12;;;;;;;27.38;4.20;;;;;;;;;;5038899;28;20029;-79
2023/01/13 02:55:42;;;;;;;30.00;4.20;;;;;;;;;;5038659;28;20021;-79
2023/01/13 02:58:10;;;;;;;24.80;4.53;;;;;;;;;;5037883;28;20029;-79
2023/01/13 03:00:36;;;;;;;22.98;3.92;;;;;;;;;;5038274;28;20151;-79
2023/01/13 03:03:02;;;;;;;23.92;3.72;;;;;;;;;;5038263;28;20025;-79
2023/01/13 03:05:29;;;;;;;25.38;2.85;;;;;;;;;;5037708;28;20028;-79
2023/01/13 03:08:16;;;;;;;20.65;3.38;;;;;;;;;;5037535;28;20041;-79
2023/01/13 03:11:03;;;;;;;16.45;2.40;;;;;;;;;;5019710;28;20469;-79
2023/01/13 03:13:42;;;;;;;23.23;3.13;;;;;;;;;;5038328;28;20488;-79
2023/01/13 03:16:14;;;;;;;21.83;3.00;;;;;;;;;;5037521;28;20030;-79
2023/01/13 03:18:59;;;;;;;16.48;2.40;;;;;;;;;;5033074;28;20029;-79
2023/01/13 03:21:28;;;;;;;26.67;3.75;;;;;;;;;;5021196;28;20037;-79
2023/01/13 03:24:06;;;;;;;16.67;3.28;;;;;;;;;;5023629;28;20496;-79
2023/01/13 03:26:38;;;;;;;19.45;2.90;;;;;;;;;;5019085;28;20485;-79
2023/01/13 03:29:07;;;;;;;16.88;2.95;;;;;;;;;;5034452;28;20034;-79
2023/01/13 03:31:35;;;;;;;15.00;2.45;;;;;;;;;;5038552;28;20034;-79
2023/01/13 03:34:04;;;;;;;20.83;3.35;;;;;;;;;;5031598;28;20041;-79
2023/01/13 03:36:31;;;;;;;17.83;3.28;;;;;;;;;;5037780;28;20372;-79
2023/01/13 03:38:58;;;;;;;19.70;2.30;;;;;;;;;;5038035;28;20025;-79
2023/01/13 03:41:27;;;;;;;16.20;2.90;;;;;;;;;;5043326;28;20276;-79
2023/01/13 03:46:43;;;;;;;15.60;2.25;;;;;;;;;;5043070;28;20033;-79
2023/01/13 03:49:11;;;;;;;17.58;2.58;;;;;;;;;;5042374;28;20032;-79
2023/01/13 03:51:39;;;;;;;24.10;4.78;;;;;;;;;;5042722;28;20069;-79
2023/01/13 03:54:09;;;;;;;30.52;3.67;;;;;;;;;;5042406;28;20048;-79
2023/01/13 03:56:49;;;;;;;20.15;2.88;;;;;;;;;;5032505;28;20473;-79
2023/01/13 03:59:23;;;;;;;17.80;2.90;;;;;;;;;;5041411;28;20037;-79
2023/01/13 04:01:56;;;;;;;18.35;3.00;;;;;;;;;;5041002;28;20034;-79
2023/01/13 04:04:29;;;;;;;23.95;3.55;;;;;;;;;;5040664;28;20030;-79
2023/01/13 04:07:01;;;;;;;23.95;3.80;;;;;;;;;;5039262;28;20046;-79
2023/01/13 04:09:43;;;;;;;20.63;2.92;;;;;;;;;;5039458;28;20033;-79
2023/01/13 04:12:22;;;;;;;26.85;3.75;;;;;;;;;;5035615;28;20105;-79
2023/01/13 04:14:49;;;;;;;23.92;3.25;;;;;;;;;;5019779;28;20034;-79
2023/01/13 04:17:15;;;;;;;25.38;3.15;;;;;;;;;;5024570;28;20424;-79
2023/01/13 04:19:41;;;;;;;23.42;3.13;;;;;;;;;;5020206;28;20053;-79
2023/01/13 04:22:07;;;;;;;22.35;2.90;;;;;;;;;;5037955;28;20396;-79
2023/01/13 04:24:33;;;;;;;16.20;2.63;;;;;;;;;;5037567;28;20029;-79
2023/01/13 04:26:59;;;;;;;19.85;2.95;;;;;;;;;;5037952;28;20037;-79
2023/01/13 04:29:25;;;;;;;21.45;2.60;;;;;;;;;;5038167;28;20048;-79
2023/01/13 04:31:51;;;;;;;22.10;2.80;;;;;;;;;;5027379;28;20141;-79
2023/01/13 04:34:17;;;;;;;19.10;3.17;;;;;;;;;;5022648;28;20049;-79
2023/01/13 04:36:43;;;;;;;23.58;3.35;;;;;;;;;;5037004;28;20029;-79
2023/01/13 04:39:09;;;;;;;22.98;3.33;;;;;;;;;;5036604;28;20033;-79
2023/01/13 04:44:20;;;;;;;12.13;2.35;;;;;;;;;;5036294;28;20052;-79
2023/01/13 04:46:46;;;;;;;25.55;3.08;;;;;;;;;;5018027;28;20384;-79
2023/01/13 04:49:12;;;;;;;22.73;2.90;;;;;;;;;;5020088;28;20033;-79
2023/01/13 04:51:38;;;;;;;16.30;2.95;;;;;;;;;;5035831;28;20030;-79
2023/01/13 04:54:04;;;;;;;20.88;2.47;;;;;;;;;;5035195;28;20091;-79
2023/01/13 04:56:30;;;;;;;18.10;3.35;;;;;;;;;;5035907;28;20092;-79
2023/01/13 04:58:56;;;;;;;18.08;2.35;;;;;;;;;;5035181;28;20457;-79
2023/01/13 05:01:22;;;;;;;17.95;2.72;;;;;;;;;;5036691;28;20033;-79
2023/01/13 05:03:48;;;;;;;21.85;4.03;;;;;;;;;;5035453;28;20388;-79
2023/01/13 05:06:15;;;;;;;21.25;3.22;;;;;;;;;;5035254;28;20053;-79
2023/01/13 05:08:41;;;;;;;16.98;3.17;;;;;;;;;;5035586;28;20025;-79
2023/01/13 05:16:58;;;;;;;16.67;3.55;;;;;;;;;;5035360;28;20029;-79
2023/01/13 05:19:21;;;;;;;25.88;2.47;;;;;;;;;;5035232;28;20036;-79
2023/01/13 05:27:21;;;;;;;15.30;2.42;;;;;;;;;;5015445;28;20036;-79
2023/01/13 05:29:47;;;;;;;17.38;3.13;;;;;;;;;;5015271;28;20112;-79
2023/01/13 05:32:13;;;;;;;24.40;2.72;;;;;;;;;;5029091;28;20112;-79
2023/01/13 05:34:39;;;;;;;16.77;2.50;;;;;;;;;;5029406;28;20105;-79
2023/01/13 05:37:06;;;;;;;17.52;2.78;;;;;;;;;;5044742;28;20037;-79
2023/01/13 05:45:07;;;;;;;14.43;2.13;;;;;;;;;;5033658;28;20099;-79
2023/01/13 05:47:33;;;;;;;18.20;2.67;;;;;;;;;;5043484;28;20033;-79
2023/01/13 05:49:59;;;;;;;19.80;3.00;;;;;;;;;;5042388;28;20503;-79
2023/01/13 05:52:25;;;;;;;18.20;2.80;;;;;;;;;;5025363;28;20030;-79
2023/01/13 05:54:51;;;;;;;21.90;2.65;;;;;;;;;;5024776;28;20033;-79
2023/01/13 05:57:17;;;;;;;13.05;2.08;;;;;;;;;;5032845;28;20033;-79
2023/01/13 05:59:43;;;;;;;19.10;2.92;;;;;;;;;;5029215;28;20033;-79
2023/01/13 06:02:09;;;;;;;16.25;2.10;;;;;;;;;;5038280;28;20029;-79
2023/01/13 06:04:35;;;;;;;12.63;2.45;;;;;;;;;;5019438;28;20025;-80
2023/01/13 06:07:01;;;;;;;17.33;3.28;;;;;;;;;;5036001;28;20057;-79
2023/01/13 06:09:27;;;;;;;21.00;2.90;;;;;;;;;;5035851;28;20041;-79
2023/01/13 06:11:53;;;;;;;16.15;2.55;;;;;;;;;;5031169;28;20445;-79
2023/01/13 06:14:19;;;;;;;21.25;2.55;;;;;;;;;;5014889;28;20030;-79
2023/01/13 06:16:45;;;;;;;17.58;2.38;;;;;;;;;;5015270;28;20080;-79
2023/01/13 06:19:12;;;;;;;16.92;2.50;;;;;;;;;;5029988;28;20034;-79
2023/01/13 06:21:43;;;;;;;19.70;2.47;;;;;;;;;;5016790;28;20029;-79
2023/01/13 06:24:10;;;;;;;13.45;2.15;;;;;;;;;;5035253;28;20018;-79
2023/01/13 06:26:42;;;;;;;16.40;2.33;;;;;;;;;;5035185;28;20026;-79
2023/01/13 06:29:08;;;;;;;13.75;3.15;;;;;;;;;;5038405;28;20721;-79
2023/01/13 06:31:36;;;;;;;18.55;2.25;;;;;;;;;;5005475;28;20030;-80
2023/01/13 06:34:07;;;;;;;14.25;2.72;;;;;;;;;;5036926;28;20380;-80
2023/01/13 06:36:48;;;;;;;14.40;2.00;;;;;;;;;;5020944;28;20037;-80
2023/01/13 06:39:16;;;;;;;18.17;2.33;;;;;;;;;;5021277;28;20044;-80
2023/01/13 06:44:27;;;;;;;14.38;2.45;;;;;;;;;;5028910;28;20029;-79
2023/01/13 06:46:53;;;;;;;22.02;3.00;;;;;;;;;;5029866;28;20030;-80
2023/01/13 06:49:19;;;;;;;16.80;2.30;;;;;;;;;;5026481;28;20033;-80
2023/01/13 06:51:45;;;;;;;13.98;2.47;;;;;;;;;;5021793;28;20025;-80
2023/01/13 06:54:11;;;;;;;18.52;2.30;;;;;;;;;;5003290;28;20544;-80
2023/01/13 06:56:37;;;;;;;18.58;2.90;;;;;;;;;;5036764;28;20021;-80
2023/01/13 06:59:03;;;;;;;16.10;2.88;;;;;;;;;;5041574;28;20026;-80
2023/01/13 07:01:29;;;;;;;12.45;1.63;;;;;;;;;;5039577;28;20399;-80
2023/01/13 07:03:57;;;;;;;18.80;3.13;;;;;;;;;;5039979;28;20033;-80
2023/01/13 07:06:23;;;;;;;17.17;2.30;;;;;;;;;;5038096;28;20069;-80
2023/01/13 07:08:49;;;;;;;16.55;2.22;;;;;;;;;;5039615;28;20025;-80
2023/01/13 07:11:20;;;;;;;14.75;2.38;;;;;;;;;;5039614;28;20369;-80
2023/01/13 07:16:31;;;;;;;13.80;2.08;;;;;;;;;;5021397;28;20084;-80
2023/01/13 07:18:57;;;;;;;19.92;3.08;;;;;;;;;;5038520;28;20073;-80
2023/01/13 07:21:23;;;;;;;20.02;3.17;;;;;;;;;;5022730;28;20476;-80
2023/01/13 07:23:49;;;;;;;17.55;2.55;;;;;;;;;;5039840;28;20072;-80
2023/01/13 07:26:15;;;;;;;14.90;3.03;;;;;;;;;;5040201;28;20487;-80
2023/01/13 07:28:41;;;;;;;21.98;3.35;;;;;;;;;;5040950;28;20105;-79
2023/01/13 07:31:19;;;;;;;18.00;2.60;;;;;;;;;;5041952;28;20053;-80
2023/01/13 07:33:46;;;;;;;21.92;2.78;;;;;;;;;;5031574;28;20018;-80
2023/01/13 07:36:12;;;;;;;20.58;2.60;;;;;;;;;;5045371;28;20052;-80
2023/01/13 07:38:43;;;;;;;16.33;3.78;;;;;;;;;;5038550;28;20065;-80
2023/01/13 07:43:55;;;;;;;21.38;2.80;;;;;;;;;;5036030;28;20562;-81
2023/01/13 07:46:21;;;;;;;20.00;2.25;;;;;;;;;;5030322;28;20025;-80
2023/01/13 07:48:48;;;;;;;20.70;2.75;;;;;;;;;;5038234;28;20108;-80
2023/01/13 07:51:14;;;;;;;16.73;2.72;;;;;;;;;;5028429;28;20026;-80
2023/01/13 07:53:40;;;;;;;18.13;2.85;;;;;;;;;;5030534;28;20025;-80
2023/01/13 07:56:06;;;;;;;21.10;2.95;;;;;;;;;;5017993;28;20022;-80
2023/01/13 07:58:33;;;;;;;19.00;3.35;;;;;;;;;;5034976;28;20026;-80
2023/01/13 08:00:59;;;;;;;20.52;2.80;;;;;;;;;;5036651;28;20105;-80
2023/01/13 08:03:26;;;;;;;21.15;3.08;;;;;;;;;;5035378;28;20037;-80
2023/01/13 08:05:52;;;;;;;18.42;3.25;;;;;;;;;;5024512;28;20046;-80
2023/01/13 08:08:18;;;;;;;20.23;2.72;;;;;;;;;;5017326;28;20065;-80
2023/01/13 08:10:44;;;;;;;11.70;3.03;;;;;;;;;;5000142;28;20148;-80
2023/01/13 08:13:21;;;;;;;12.27;2.00;;;;;;;;;;5040934;28;20101;-80
2023/01/13 08:15:48;;;;;;;19.27;2.75;;;;;;;;;;5037089;28;20024;-80
2023/01/13 08:18:14;;;;;;;17.67;2.78;;;;;;;;;;5038036;28;20026;-80
2023/01/13 08:20:40;;;;;;;23.52;4.35;;;;;;;;;;5038908;28;20017;-80
2023/01/13 08:23:06;;;;;;;13.82;2.53;;;;;;;;;;5038911;28;20538;-80
2023/01/13 08:25:32;;;;;;;18.92;3.15;;;;;;;;;;5039702;28;20025;-80
2023/01/13 08:27:59;;;;;;;13.52;2.75;;;;;;;;;;5037914;28;20487;-80
2023/01/13 08:30:25;;;;;;;16.63;3.08;;;;;;;;;;5040553;28;20037;-80
2023/01/13 08:32:51;;;;;;;15.45;2.63;;;;;;;;;;5026869;28;20709;-80
2023/01/13 08:35:17;;;;;;;15.98;2.42;;;;;;;;;;5035890;28;20022;-80
2023/01/13 08:37:44;;;;;;;17.75;2.55;;;;;;;;;;5039115;28;20511;-80
2023/01/13 08:40:11;;;;;;;16.17;2.38;;;;;;;;;;5018569;28;20060;-80
2023/01/13 08:42:36;;;;;;;12.77;3.05;;;;;;;;;;5035029;28;20068;-80
2023/01/13 08:45:03;;;;;;;14.52;3.13;;;;;;;;;;5035340;28;20025;-80
2023/01/13 08:47:29;;;;;;;19.40;2.88;;;;;;;;;;5035336;28;20022;-80
2023/01/13 08:49:55;;;;;;;17.13;3.53;;;;;;;;;;5040291;28;20091;-81
2023/01/13 08:52:21;;;;;;;16.80;2.75;;;;;;;;;;5041252;28;20026;-81
2023/01/13 08:54:47;;;;;;;12.68;2.47;;;;;;;;;;5036845;28;20030;-80
2023/01/13 08:57:18;;;;;;;13.93;2.95;;;;;;;;;;5035559;28;20112;-81
2023/01/13 08:59:45;;;;;;;17.20;2.25;;;;;;;;;;5002569;28;20046;-80
2023/01/13 09:02:22;;;;;;;14.98;2.35;;;;;;;;;;5013282;28;20095;-80
2023/01/13 09:04:48;;;;;;;20.35;2.90;;;;;;;;;;5017670;28;20119;-80
2023/01/13 09:07:19;;;;;;;16.83;2.22;;;;;;;;;;5034520;28;20052;-80
2023/01/13 09:09:45;;;;;;;21.15;2.90;;;;;;;;;;5018600;28;20029;-80
2023/01/13 09:14:57;;;;;;;18.98;2.63;;;;;;;;;;5034787;28;20515;-81
2023/01/13 09:17:23;;;;;;;14.27;2.50;;;;;;;;;;5035969;28;20025;-81
2023/01/13 09:19:49;;;;;;;18.98;2.65;;;;;;;;;;5026778;28;20025;-81
2023/01/13 09:22:16;;;;;;;15.82;2.63;;;;;;;;;;5035485;28;20026;-80
2023/01/13 09:24:43;;;;;;;16.85;2.25;;;;;;;;;;5032797;28;20460;-81
2023/01/13 09:27:10;;;;;;;17.60;2.75;;;;;;;;;;5037898;28;20708;-81
2023/01/13 09:29:36;;;;;;;21.70;3.40;;;;;;;;;;5034906;28;20029;-82
2023/01/13 09:32:02;;;;;;;17.95;2.65;;;;;;;;;;5036370;28;20033;-81
2023/01/13 09:37:12;;;;;;;15.32;2.78;;;;;;;;;;5019557;28;20036;-80
2023/01/13 09:39:38;;;;;;;17.88;2.65;;;;;;;;;;5013768;28;20118;-81
2023/01/13 09:45:18;;;;;;;20.63;2.88;;;;;;;;;;5029098;28;20033;-83
2023/01/13 09:47:47;;;;;;;15.48;3.50;;;;;;;;;;5015704;28;20059;-81
2023/01/13 09:50:13;;;;;;;15.45;3.28;;;;;;;;;;5033347;28;20755;-81
2023/01/13 09:52:40;;;;;;;15.75;2.20;;;;;;;;;;5033512;28;20028;-81
2023/01/13 09:55:29;;;;;;;13.07;2.42;;;;;;;;;;5033377;28;20053;-81
2023/01/13 09:57:55;;;;;;;19.52;2.63;;;;;;;;;;5015302;28;20042;-81
2023/01/13 10:00:23;;;;;;;17.63;2.97;;;;;;;;;;5033789;28;20431;-81
2023/01/13 10:03:08;;;;;;;17.33;2.42;;;;;;;;;;5033715;28;20043;-81
2023/01/13 10:05:39;;;;;;;19.15;3.13;;;;;;;;;;5032955;28;20029;-81
2023/01/13 10:08:08;;;;;;;17.33;2.90;;;;;;;;;;5015514;28;20033;-81
2023/01/13 10:10:41;;;;;;;14.75;3.25;;;;;;;;;;5012574;28;20152;-81
2023/01/13 10:13:18;;;;;;;15.85;2.47;;;;;;;;;;5024148;28;20030;-81
2023/01/13 10:15:53;;;;;;;14.20;2.50;;;;;;;;;;5018176;28;20025;-81
2023/01/13 10:18:42;;;;;;;20.50;3.30;;;;;;;;;;5026371;28;20057;-81
2023/01/13 10:21:23;;;;;;;20.73;2.70;;;;;;;;;;5033139;28;20037;-81
2023/01/13 10:24:06;;;;;;;16.20;2.92;;;;;;;;;;5032520;28;20140;-81
2023/01/13 10:26:44;;;;;;;17.95;2.53;;;;;;;;;;5011266;28;20022;-80
2023/01/13 10:29:24;;;;;;;15.57;2.55;;;;;;;;;;5010446;28;20087;-81
2023/01/13 10:32:10;;;;;;;13.15;2.40;;;;;;;;;;5009755;28;20427;-81
2023/01/13 10:35:04;;;;;;;11.60;2.28;;;;;;;;;;5025785;28;20084;-81
2023/01/13 10:37:30;;;;;;;12.48;1.70;;;;;;;;;;5028587;28;20073;-80
2023/01/13 10:40:00;;;;;;;12.88;2.08;;;;;;;;;;5031055;28;20148;-80
2023/01/13 10:42:26;;;;;;;18.50;2.88;;;;;;;;;;5036715;28;20104;-80
2023/01/13 10:44:56;;;;;;;13.35;2.53;;;;;;;;;;5043226;28;20025;-80
2023/01/13 10:47:29;;;;;;;17.00;2.88;;;;;;;;;;5031097;28;20021;-80
2023/01/13 10:50:18;;;;;;;12.02;1.98;;;;;;;;;;5022124;28;20504;-80
2023/01/13 10:52:58;;;;;;;21.00;3.10;;;;;;;;;;5016274;28;20393;-81
2023/01/13 10:55:24;;;;;;;15.50;3.05;;;;;;;;;;5019062;28;20072;-81
2023/01/13 10:58:25;;;;;;;16.33;2.20;;;;;;;;;;5031870;28;20033;-81
2023/01/13 11:06:58;;;;;;;14.25;2.90;;;;;;;;;;5034535;28;20117;-81
2023/01/13 11:09:25;;;;;;;12.90;2.95;;;;;;;;;;5036099;28;20025;-81
2023/01/13 11:11:54;;;;;;;14.40;2.50;;;;;;;;;;5035229;28;20033;-81
2023/01/13 11:14:40;;;;;;;15.05;2.47;;;;;;;;;;5015162;28;20022;-81
2023/01/13 11:17:09;;;;;;;18.17;3.00;;;;;;;;;;5039890;28;20021;-81
2023/01/13 11:19:37;;;;;;;11.43;2.28;;;;;;;;;;5041102;28;20040;-81
2023/01/13 11:22:04;;;;;;;16.13;2.67;;;;;;;;;;5030567;28;20105;-81
2023/01/13 11:24:36;;;;;;;18.83;2.67;;;;;;;;;;5030766;28;20025;-81
2023/01/13 11:27:06;;;;;;;13.40;2.58;;;;;;;;;;5027099;28;20469;-81
2023/01/13 11:29:41;;;;;;;15.15;2.30;;;;;;;;;;5035810;28;20037;-81
2023/01/13 11:32:17;;;;;;;11.32;1.80;;;;;;;;;;5036632;28;20026;-80
2023/01/13 11:34:45;;;;;;;11.18;1.88;;;;;;;;;;5034457;28;20025;-81
2023/01/13 11:37:20;;;;;;;13.38;1.92;;;;;;;;;;5028663;28;20045;-80
2023/01/13 11:39:54;;;;;;;14.05;1.92;;;;;;;;;;5015916;28;20056;-80
2023/01/13 11:42:37;;;;;;;17.65;2.30;;;;;;;;;;5016540;28;20022;-81
2023/01/13 11:45:15;;;;;;;11.90;2.25;;;;;;;;;;5030386;28;20025;-81
2023/01/13 11:47:41;;;;;;;16.95;2.40;;;;;;;;;;5035964;28;20025;-81
2023/01/13 11:50:15;;;;;;;12.90;1.88;;;;;;;;;;5039294;28;20029;-81
2023/01/13 11:52:47;;;;;;;10.43;2.13;;;;;;;;;;5036559;28;20473;-81
2023/01/13 11:55:29;;;;;;;11.63;1.77;;;;;;;;;;5018953;28;20030;-81
2023/01/13 11:58:01;;;;;;;8.85;1.90;;;;;;;;;;5016147;28;20048;-81
2023/01/13 12:00:46;;;;;;;15.40;2.05;;;;;;;;;;5026748;28;20029;-81
2023/01/13 12:03:15;;;;;;;9.23;2.05;;;;;;;;;;5027837;28;20037;-81
2023/01/13 12:05:51;;;;;;;10.65;2.00;;;;;;;;;;5017431;28;20026;-81
2023/01/13 12:08:19;;;;;;;16.85;1.92;;;;;;;;;;5035071;28;20057;-81
2023/01/13 12:11:02;;;;;;;9.60;1.80;;;;;;;;;;5035379;28;20037;-81
2023/01/13 12:13:28;;;;;;;17.95;2.20;;;;;;;;;;5035118;28;20427;-81
2023/01/13 12:16:17;;;;;;;18.05;2.35;;;;;;;;;;5034908;28;20496;-81
2023/01/13 12:18:52;;;;;;;9.43;2.22;;;;;;;;;;5024744;28;20083;-81
2023/01/13 12:21:20;;;;;;;16.77;2.28;;;;;;;;;;5040483;28;20037;-80
2023/01/13 12:24:05;;;;;;;12.88;2.50;;;;;;;;;;5034966;28;20037;-81
2023/01/13 12:26:36;;;;;;;16.10;2.53;;;;;;;;;;5015092;28;20030;-81
2023/01/13 12:29:13;;;;;;;4.05;1.60;;;;;;;;;;5015062;28;20030;-81
2023/01/13 12:31:40;;;;;;;15.73;2.53;;;;;;;;;;5014920;28;20110;-81
2023/01/13 12:34:21;;;;;;;10.90;1.55;;;;;;;;;;5015089;28;20022;-81
2023/01/13 12:36:52;;;;;;;21.52;2.60;;;;;;;;;;5015896;28;20052;-81
2023/01/13 12:39:30;;;;;;;12.07;1.90;;;;;;;;;;5035930;28;20033;-81
2023/01/13 12:45:09;;;;;;;8.07;1.60;;;;;;;;;;5014901;28;20018;-81
2023/01/13 12:47:43;;;;;;;14.15;1.95;;;;;;;;;;5017016;28;20026;-81
2023/01/13 12:50:21;;;;;;;12.18;2.13;;;;;;;;;;5030614;28;20037;-81
2023/01/13 12:52:47;;;;;;;9.48;1.92;;;;;;;;;;5034445;28;20018;-81
2023/01/13 12:55:15;;;;;;;14.60;2.40;;;;;;;;;;5034349;28;20022;-81
2023/01/13 12:57:55;;;;;;;13.75;2.40;;;;;;;;;;5034583;28;20022;-81
2023/01/13 13:00:21;;;;;;;13.35;1.95;;;;;;;;;;5034424;28;20038;-80
2023/01/13 13:03:06;;;;;;;14.40;2.10;;;;;;;;;;5034151;28;20026;-81
2023/01/13 13:05:48;;;;;;;25.58;4.43;;;;;;;;;;5039117;28;20021;-81
2023/01/13 13:08:19;;;;;;;13.15;2.03;;;;;;;;;;5036160;28;20049;-81
2023/01/13 13:11:06;;;;;;;14.35;3.10;;;;;;;;;;5036217;28;20045;-81
2023/01/13 13:13:41;;;;;;;10.98;1.75;;;;;;;;;;5041843;28;20269;-81
2023/01/13 13:16:28;;;;;;;12.55;2.50;;;;;;;;;;5030781;28;20029;-81
2023/01/13 13:19:12;;;;;;;14.27;1.92;;;;;;;;;;5021223;28;20076;-81
2023/01/13 13:21:57;;;;;;;14.10;2.35;;;;;;;;;;5014123;28;20038;-81
2023/01/13 13:24:24;;;;;;;10.77;1.73;;;;;;;;;;5021000;28;20487;-81
2023/01/13 13:26:50;;;;;;;18.17;2.38;;;;;;;;;;5028633;28;20104;-80
2023/01/13 13:29:35;;;;;;;9.70;2.00;;;;;;;;;;5024174;28;20025;-81
2023/01/13 13:32:16;;;;;;;12.73;2.22;;;;;;;;;;5028634;28;20025;-81
2023/01/13 13:34:42;;;;;;;11.30;1.95;;;;;;;;;;5032080;28;20087;-81
2023/01/13 13:37:27;;;;;;;14.43;2.55;;;;;;;;;;5025168;28;20445;-81
2023/01/13 13:48:33;;;;;;;12.82;1.90;;;;;;;;;;5038191;28;20052;-81
2023/01/13 13:51:02;;;;;;;9.77;2.22;;;;;;;;;;5035296;28;20032;-81
2023/01/13 13:53:47;;;;;;;6.88;1.67;;;;;;;;;;5027180;28;20437;-81
2023/01/13 13:56:18;;;;;;;14.43;2.65;;;;;;;;;;5032285;28;20078;-81
2023/01/13 13:58:46;;;;;;;16.17;2.70;;;;;;;;;;5028418;28;20022;-80
2023/01/13 14:01:21;;;;;;;11.93;2.22;;;;;;;;;;5018030;28;20111;-80
2023/01/13 14:04:00;;;;;;;13.73;2.67;;;;;;;;;;5028386;28;20024;-80
2023/01/13 14:06:28;;;;;;;13.13;2.60;;;;;;;;;;5034539;28;20080;-81
2023/01/13 14:08:54;;;;;;;13.20;2.80;;;;;;;;;;5017520;28;20446;-80
2023/01/13 14:11:26;;;;;;;12.75;2.28;;;;;;;;;;5024194;28;20113;-79
2023/01/13 14:14:02;;;;;;;16.23;2.70;;;;;;;;;;5036772;28;20093;-80
2023/01/13 14:16:28;;;;;;;15.23;2.72;;;;;;;;;;5035059;28;20045;-80
2023/01/13 14:18:55;;;;;;;13.45;2.03;;;;;;;;;;5030643;28;20026;-81
2023/01/13 14:21:30;;;;;;;9.10;2.10;;;;;;;;;;5028679;28;20510;-79
2023/01/13 14:23:57;;;;;;;12.40;2.20;;;;;;;;;;5037842;28;20496;-80
2023/01/13 14:26:24;;;;;;;14.13;2.72;;;;;;;;;;5034673;28;20028;-81
2023/01/13 14:28:50;;;;;;;12.25;3.00;;;;;;;;;;5022855;28;20032;-81
2023/01/13 14:31:17;;;;;;;12.18;2.00;;;;;;;;;;5029879;28;20064;-82
2023/01/13 14:33:45;;;;;;;9.75;2.47;;;;;;;;;;5025457;28;20018;-82
2023/01/13 14:36:15;;;;;;;13.35;2.22;;;;;;;;;;5019744;28;20022;-81
2023/01/13 14:38:42;;;;;;;12.98;2.05;;;;;;;;;;5023422;28;20022;-82
2023/01/13 14:41:19;;;;;;;10.48;1.73;;;;;;;;;;5021420;28;20420;-82
2023/01/13 14:43:53;;;;;;;11.68;1.88;;;;;;;;;;5010208;28;20036;-81
2023/01/13 14:46:24;;;;;;;12.23;1.88;;;;;;;;;;5027266;28;20028;-81
2023/01/13 14:48:53;;;;;;;12.50;2.33;;;;;;;;;;5028872;28;20018;-81
2023/01/13 14:51:26;;;;;;;11.90;2.40;;;;;;;;;;5022304;28;20025;-81
2023/01/13 14:53:52;;;;;;;13.13;2.20;;;;;;;;;;5033485;28;20380;-81
2023/01/13 14:56:45;;;;;;;13.55;2.50;;;;;;;;;;5032510;28;20105;-81
2023/01/13 14:59:34;;;;;;;12.80;2.30;;;;;;;;;;5016533;28;20053;-81
2023/01/13 15:02:01;;;;;;;9.18;1.70;;;;;;;;;;5035278;28;20084;-81
2023/01/13 15:04:31;;;;;;;9.10;1.95;;;;;;;;;;5040909;28;20456;-81
2023/01/13 15:06:57;;;;;;;14.02;2.40;;;;;;;;;;5039176;28;20054;-81
2023/01/13 15:09:28;;;;;;;13.23;2.47;;;;;;;;;;5042098;28;20029;-82
2023/01/13 15:11:57;;;;;;;12.77;1.83;;;;;;;;;;5012164;28;20022;-82
2023/01/13 15:14:25;;;;;;;15.38;1.75;;;;;;;;;;5021704;28;20024;-82
2023/01/13 15:16:51;;;;;;;10.45;1.92;;;;;;;;;;5035123;28;20025;-82
2023/01/13 15:19:17;;;;;;;8.98;1.75;;;;;;;;;;5033457;28;20111;-81
2023/01/13 15:21:43;;;;;;;13.48;2.53;;;;;;;;;;5038668;28;20030;-81
2023/01/13 15:24:09;;;;;;;9.50;1.67;;;;;;;;;;5032472;28;20029;-81
2023/01/13 15:26:36;;;;;;;15.13;1.77;;;;;;;;;;5030083;28;20024;-80
2023/01/13 15:29:04;;;;;;;14.68;2.53;;;;;;;;;;5022286;28;20109;-79
2023/01/13 15:31:32;;;;;;;11.15;2.03;;;;;;;;;;5040196;28;20060;-79
2023/01/13 15:33:59;;;;;;;7.72;1.58;;;;;;;;;;5039057;28;20034;-81
2023/01/13 15:36:29;;;;;;;13.00;2.53;;;;;;;;;;5038188;28;20414;-81
2023/01/13 15:38:55;;;;;;;8.65;2.03;;;;;;;;;;5031363;28;20021;-81
2023/01/13 15:46:51;;;;;;;16.33;2.72;;;;;;;;;;5020416;28;20745;-80
2023/01/13 15:49:27;;;;;;;11.30;2.00;;;;;;;;;;5036250;28;20024;-80
2023/01/13 15:51:53;;;;;;;8.57;1.80;;;;;;;;;;5038846;28;20095;-80
2023/01/13 15:54:21;;;;;;;14.07;2.25;;;;;;;;;;5022139;28;20424;-80
2023/01/13 15:56:48;;;;;;;14.93;2.03;;;;;;;;;;5034862;28;20025;-80
2023/01/13 15:59:16;;;;;;;17.05;2.35;;;;;;;;;;5037600;28;20033;-80
2023/01/13 16:01:42;;;;;;;12.45;2.53;;;;;;;;;;5020301;28;20035;-80
2023/01/13 16:04:08;;;;;;;9.05;2.03;;;;;;;;;;5036690;28;20025;-80